London Mills, Illinois
Current Conditions -  °F | °C
As of 9:15 PM on Thursday 27 Nov 2014 (Local Time) from KGBG Reporting Station
Clear Clear  
Wind Chill: -13°   Ceiling: Unl
Heat Index: -13°   Visibility: 10mi
Dew Point: -15°   Wind: 0mph
Humidity: 87%   Direction: NA
Pressure: 30.41"   Gusts: NA
Location:  40.71°N, 90.27°W
Report Text: KGBG 280315Z AUTO 00000KT 10SM CLR M13/M15 A3041 RMK AO2 T11301147
Loading
Personal Weather Stations






























Interactive Weather Map New forecast layout! Learn more

10-Day Weather Forecast

Advertisements
Track Severe Weather on mobile